createdAt,value
2019-05-05T00:00:06.641Z,2.00
2019-05-05T00:03:01.234Z,2.83
2019-05-05T00:05:35.377Z,2.23
2019-05-05T00:08:05.333Z,2.33
2019-05-05T00:10:49.409Z,1.90
2019-05-05T00:13:28.487Z,2.00
2019-05-05T00:16:19.863Z,2.90
2019-05-05T00:18:50.179Z,2.67
2019-05-05T00:21:19.638Z,2.63
2019-05-05T00:23:48.963Z,2.60
2019-05-05T00:26:18.258Z,2.93
2019-05-05T00:28:47.649Z,2.60
2019-05-05T00:31:17.014Z,2.80
2019-05-05T00:33:46.379Z,2.67
2019-05-05T00:36:15.754Z,2.70
2019-05-05T00:38:45.139Z,2.67
2019-05-05T00:41:14.902Z,2.53
2019-05-05T00:43:45.110Z,2.60
2019-05-05T00:46:24.535Z,2.80
2019-05-05T00:48:55.036Z,2.60
2019-05-05T00:51:24.555Z,3.10
2019-05-05T00:53:55.442Z,2.60
2019-05-05T00:56:26.600Z,2.97
2019-05-05T00:58:59.727Z,2.73
2019-05-05T01:01:49.676Z,2.83
2019-05-05T01:04:24.480Z,3.20
2019-05-05T01:06:54.875Z,2.70
2019-05-05T01:09:26.208Z,2.60
2019-05-05T01:11:55.546Z,2.40
2019-05-05T01:14:25.026Z,3.10
2019-05-05T01:16:54.689Z,2.87
2019-05-05T01:19:24.393Z,3.07
2019-05-05T01:21:54.402Z,2.93
2019-05-05T01:24:24.867Z,3.00
2019-05-05T01:26:55.102Z,2.60
2019-05-05T01:29:25.255Z,3.00
2019-05-05T01:31:56.485Z,2.83
2019-05-05T01:34:35.799Z,2.37
2019-05-05T01:37:11.738Z,3.10
2019-05-05T01:39:49.402Z,3.07
2019-05-05T01:42:18.897Z,3.40
2019-05-05T01:44:48.287Z,3.07
2019-05-05T01:47:17.731Z,3.10
2019-05-05T01:49:47.015Z,2.93
2019-05-05T01:52:16.466Z,3.10
2019-05-05T01:54:45.785Z,3.10
2019-05-05T01:57:15.363Z,2.97
2019-05-05T01:59:45.064Z,3.33
2019-05-05T02:02:14.781Z,3.37
2019-05-05T02:04:44.774Z,3.10
2019-05-05T02:07:15.807Z,3.80
2019-05-05T02:09:45.150Z,2.80
2019-05-05T02:12:15.836Z,3.20
2019-05-05T02:14:45.288Z,3.00
2019-05-05T02:17:14.694Z,3.20
2019-05-05T02:19:44.455Z,3.60
2019-05-05T02:22:14.727Z,3.10
2019-05-05T02:24:44.567Z,3.53
2019-05-05T02:27:14.698Z,3.20
2019-05-05T02:30:06.559Z,3.00
2019-05-05T02:32:45.020Z,3.30
2019-05-05T02:35:16.422Z,3.17
2019-05-05T02:37:46.459Z,3.57
2019-05-05T02:40:16.360Z,3.30
2019-05-05T02:42:46.756Z,3.23
2019-05-05T02:45:35.463Z,3.23
2019-05-05T02:48:10.936Z,3.53
2019-05-05T02:51:01.820Z,2.90
2019-05-05T02:53:39.835Z,4.20
2019-05-05T02:56:17.288Z,4.00
2019-05-05T02:58:48.279Z,4.40
2019-05-05T03:01:40.670Z,4.40
2019-05-05T03:04:11.215Z,4.17
2019-05-05T03:06:43.831Z,3.90
2019-05-05T03:09:15.074Z,4.20
2019-05-05T03:11:46.968Z,4.20
2019-05-05T03:14:18.388Z,3.70
2019-05-05T03:16:47.799Z,3.97
2019-05-05T03:19:17.285Z,3.40
2019-05-05T03:21:46.601Z,3.77
2019-05-05T03:24:15.904Z,3.23
2019-05-05T03:26:45.242Z,3.60
2019-05-05T03:29:18.839Z,3.53
2019-05-05T03:31:49.598Z,3.37
2019-05-05T03:34:23.832Z,3.20
2019-05-05T03:36:54.179Z,4.23
2019-05-05T03:39:28.539Z,3.27
2019-05-05T03:42:18.013Z,3.00
2019-05-05T03:45:16.213Z,3.27
2019-05-05T03:47:46.004Z,3.40
2019-05-05T03:50:15.675Z,3.30
2019-05-05T03:52:45.732Z,3.00
2019-05-05T03:55:15.106Z,3.00
2019-05-05T03:57:45.223Z,3.00
2019-05-05T04:00:23.479Z,2.73
2019-05-05T04:02:59.948Z,3.13
2019-05-05T04:05:36.301Z,2.93
2019-05-05T04:08:05.690Z,3.60
2019-05-05T04:10:36.060Z,3.10
2019-05-05T04:13:05.547Z,3.03
2019-05-05T04:15:36.843Z,3.23
2019-05-05T04:18:27.353Z,3.53
2019-05-05T04:20:56.726Z,3.00
2019-05-05T04:23:26.044Z,3.03
2019-05-05T04:25:55.405Z,3.50
2019-05-05T04:28:24.689Z,3.30
2019-05-05T04:30:54.078Z,3.30
2019-05-05T04:33:23.701Z,3.37
2019-05-05T04:35:54.544Z,2.73
2019-05-05T04:38:24.371Z,3.27
2019-05-05T04:40:54.236Z,2.80
2019-05-05T04:43:24.606Z,2.83
2019-05-05T04:45:54.222Z,2.77
2019-05-05T04:48:34.464Z,2.97
2019-05-05T04:51:14.327Z,2.90
2019-05-05T04:54:03.628Z,3.13
2019-05-05T04:56:34.308Z,2.97
2019-05-05T04:59:04.084Z,3.70
2019-05-05T05:01:33.895Z,3.30
2019-05-05T05:04:31.104Z,3.47
2019-05-05T05:07:00.721Z,3.77
2019-05-05T05:09:30.060Z,3.40
2019-05-05T05:11:59.387Z,3.20
2019-05-05T05:14:28.661Z,3.33
2019-05-05T05:16:59.576Z,3.73
2019-05-05T05:19:28.868Z,2.67
2019-05-05T05:22:01.870Z,3.07
2019-05-05T05:24:29.218Z,3.50
2019-05-05T05:26:58.664Z,3.60
2019-05-05T05:29:28.061Z,3.67
2019-05-05T05:31:57.376Z,3.00
2019-05-05T05:34:26.754Z,2.70
2019-05-05T05:36:56.076Z,2.90
2019-05-05T05:39:56.396Z,2.97
2019-05-05T05:42:26.738Z,3.27
2019-05-05T05:45:15.054Z,3.13
2019-05-05T05:48:04.003Z,3.33
2019-05-05T05:50:53.653Z,2.87
2019-05-05T05:53:23.997Z,3.20
2019-05-05T05:55:53.932Z,3.57
2019-05-05T05:58:24.524Z,3.07
2019-05-05T06:00:54.931Z,3.57
2019-05-05T06:03:44.333Z,3.67
2019-05-05T06:06:13.915Z,3.33
2019-05-05T06:08:44.028Z,3.83
2019-05-05T06:11:13.747Z,3.20
2019-05-05T06:13:44.442Z,4.00
2019-05-05T06:16:14.592Z,3.47
2019-05-05T06:18:44.066Z,3.50
2019-05-05T06:21:13.862Z,3.40
2019-05-05T06:23:43.861Z,2.80
2019-05-05T06:26:15.245Z,3.67
2019-05-05T06:28:44.794Z,3.10
2019-05-05T06:31:14.619Z,3.20
2019-05-05T06:33:43.989Z,3.20
2019-05-05T06:36:14.212Z,3.30
2019-05-05T06:38:43.889Z,3.30
2019-05-05T06:41:57.703Z,3.80
2019-05-05T06:45:21.505Z,3.50
2019-05-05T06:47:50.922Z,3.10
2019-05-05T06:50:20.312Z,3.40
2019-05-05T06:52:49.721Z,3.20
2019-05-05T06:55:19.051Z,2.97
2019-05-05T06:57:49.885Z,3.47
2019-05-05T07:00:19.322Z,3.20
2019-05-05T07:02:48.619Z,3.27
2019-05-05T07:05:18.027Z,3.07
2019-05-05T07:07:47.412Z,3.20
2019-05-05T07:10:16.856Z,2.80
2019-05-05T07:12:46.159Z,3.20
2019-05-05T07:15:15.682Z,2.90
2019-05-05T07:17:45.061Z,3.13
2019-05-05T07:20:14.480Z,3.00
2019-05-05T07:22:58.335Z,3.00
2019-05-05T07:25:14.810Z,2.80
2019-05-05T07:27:44.374Z,2.80
2019-05-05T07:30:13.926Z,3.00
2019-05-05T07:32:44.284Z,3.63
2019-05-05T07:35:31.384Z,3.13
2019-05-05T07:38:00.811Z,3.07
2019-05-05T07:40:30.099Z,2.77
2019-05-05T07:42:59.454Z,2.30
2019-05-05T07:45:28.767Z,2.83
2019-05-05T07:47:58.160Z,2.43
2019-05-05T07:50:32.174Z,2.50
2019-05-05T07:53:11.455Z,2.70
2019-05-05T07:55:29.585Z,2.50
2019-05-05T07:57:59.049Z,2.70
2019-05-05T08:00:28.544Z,2.97
2019-05-05T08:02:57.853Z,2.77
2019-05-05T08:05:27.128Z,2.53
2019-05-05T08:07:56.466Z,2.60
2019-05-05T08:10:25.865Z,2.77
2019-05-05T08:12:55.207Z,2.47
2019-05-05T08:15:26.231Z,2.40
2019-05-05T08:18:05.770Z,1.93
2019-05-05T08:20:38.314Z,1.97
2019-05-05T08:23:10.575Z,2.10
2019-05-05T08:25:48.139Z,2.30
2019-05-05T08:28:35.570Z,1.73
2019-05-05T08:31:24.984Z,1.90
2019-05-05T08:33:54.724Z,1.70
2019-05-05T08:36:24.185Z,2.00
2019-05-05T08:38:54.637Z,1.90
2019-05-05T08:41:24.443Z,2.20
2019-05-05T08:43:54.317Z,1.80
2019-05-05T08:46:24.723Z,1.60
2019-05-05T08:48:54.226Z,1.70
2019-05-05T08:51:24.733Z,2.15
2019-05-05T08:53:54.616Z,15.72
2019-05-05T08:56:24.377Z,2.10
2019-05-05T08:58:54.522Z,1.70
2019-05-05T09:01:24.014Z,1.75
2019-05-05T09:03:53.631Z,1.70
2019-05-05T09:06:24.122Z,1.83
2019-05-05T09:08:54.777Z,1.53
2019-05-05T09:11:24.263Z,2.60
2019-05-05T09:13:53.639Z,2.53
2019-05-05T09:16:24.184Z,2.20
2019-05-05T09:19:04.158Z,2.10
2019-05-05T09:21:34.568Z,1.40
2019-05-05T09:24:38.456Z,1.33
2019-05-05T09:27:17.217Z,1.43
2019-05-05T09:29:46.527Z,1.83
2019-05-05T09:32:15.876Z,2.20
2019-05-05T09:34:45.356Z,2.13
2019-05-05T09:37:14.726Z,2.00
2019-05-05T09:39:44.096Z,1.40
2019-05-05T09:42:14.511Z,1.90
2019-05-05T09:44:44.123Z,2.43
2019-05-05T09:47:13.811Z,1.70
2019-05-05T09:49:44.511Z,1.77
2019-05-05T09:52:14.229Z,1.77
2019-05-05T09:54:43.965Z,1.70
2019-05-05T09:57:14.499Z,1.70
2019-05-05T09:59:44.382Z,1.30
2019-05-05T10:02:34.415Z,1.63
2019-05-05T10:05:04.057Z,1.60
2019-05-05T10:07:34.575Z,1.60
2019-05-05T10:10:04.680Z,1.60
2019-05-05T10:12:34.162Z,1.80
2019-05-05T10:15:07.152Z,2.17
2019-05-05T10:17:34.632Z,1.97
2019-05-05T10:20:04.164Z,1.93
2019-05-05T10:22:34.337Z,1.70
2019-05-05T10:25:23.801Z,4.27
2019-05-05T10:27:53.983Z,4.97
2019-05-05T10:30:23.901Z,2.37
2019-05-05T10:32:54.577Z,2.03
2019-05-05T10:35:25.387Z,1.83
2019-05-05T10:37:54.761Z,1.70
2019-05-05T10:40:27.801Z,1.60
2019-05-05T10:42:57.132Z,1.80
2019-05-05T10:45:26.598Z,1.40
2019-05-05T10:47:56.487Z,1.83
2019-05-05T10:50:25.784Z,1.50
2019-05-05T10:52:55.166Z,2.00
2019-05-05T10:55:24.988Z,1.67
2019-05-05T10:57:54.854Z,1.97
2019-05-05T11:00:44.729Z,1.50
2019-05-05T11:03:15.088Z,2.10
2019-05-05T11:05:45.238Z,1.73
2019-05-05T11:08:14.635Z,1.93
2019-05-05T11:10:45.193Z,1.73
2019-05-05T11:13:14.698Z,1.70
2019-05-05T11:15:44.614Z,1.47
2019-05-05T11:18:15.056Z,1.50
2019-05-05T11:20:45.186Z,1.47
2019-05-05T11:23:15.078Z,1.80
2019-05-05T11:25:44.781Z,2.03
2019-05-05T11:28:14.191Z,1.57
2019-05-05T11:30:44.681Z,2.10
2019-05-05T11:33:34.263Z,2.00
2019-05-05T11:36:23.947Z,1.80
2019-05-05T11:38:53.687Z,1.80
2019-05-05T11:41:24.279Z,1.63
2019-05-05T11:43:53.843Z,2.00
2019-05-05T11:46:24.684Z,2.07
2019-05-05T11:48:54.525Z,1.73
2019-05-05T11:51:24.986Z,2.00
2019-05-05T11:53:54.556Z,7.07
2019-05-05T11:56:23.901Z,2.40
2019-05-05T11:58:54.663Z,1.90
2019-05-05T12:01:24.464Z,2.90
2019-05-05T12:03:53.971Z,1.57
2019-05-05T12:06:24.635Z,2.40
2019-05-05T12:08:54.627Z,1.40
2019-05-05T12:11:24.123Z,1.67
2019-05-05T12:13:54.640Z,1.53
2019-05-05T12:16:31.985Z,3.10
2019-05-05T12:19:04.230Z,2.30
2019-05-05T12:21:34.047Z,1.50
2019-05-05T12:24:08.365Z,1.80
2019-05-05T12:27:03.663Z,1.60
2019-05-05T12:29:46.407Z,1.33
2019-05-05T12:32:15.829Z,3.37
2019-05-05T12:34:45.079Z,1.70
2019-05-05T12:37:14.581Z,1.60
2019-05-05T12:39:44.298Z,1.57
2019-05-05T12:42:14.147Z,1.43
2019-05-05T12:44:49.401Z,1.40
2019-05-05T12:47:50.001Z,1.33
2019-05-05T12:50:19.665Z,1.10
2019-05-05T12:52:48.989Z,1.60
2019-05-05T12:55:18.397Z,1.30
2019-05-05T12:57:47.847Z,1.30
2019-05-05T13:00:19.000Z,1.93
2019-05-05T13:02:48.409Z,5.73
2019-05-05T13:05:17.821Z,4.63
2019-05-05T13:07:47.174Z,1.40
2019-05-05T13:10:19.885Z,1.40
2019-05-05T13:12:49.328Z,1.30
2019-05-05T13:15:18.726Z,1.30
2019-05-05T13:17:48.086Z,1.33
2019-05-05T13:20:29.579Z,1.30
2019-05-05T13:23:23.496Z,1.10
2019-05-05T13:26:06.279Z,1.00
2019-05-05T13:28:35.642Z,1.20
2019-05-05T13:31:05.116Z,1.37
2019-05-05T13:33:37.129Z,1.80
2019-05-05T13:36:05.684Z,1.27
2019-05-05T13:38:35.157Z,1.63
2019-05-05T13:41:04.536Z,2.03
2019-05-05T13:43:34.381Z,1.70
2019-05-05T13:46:17.375Z,1.20
2019-05-05T13:48:47.023Z,1.10
2019-05-05T13:51:16.937Z,1.30
2019-05-05T13:53:46.627Z,1.37
2019-05-05T13:56:15.911Z,1.27
2019-05-05T13:58:45.352Z,1.30
2019-05-05T14:01:14.788Z,1.10
2019-05-05T14:03:44.800Z,1.70
2019-05-05T14:06:14.135Z,1.00
2019-05-05T14:08:44.777Z,1.40
2019-05-05T14:11:14.358Z,1.07
2019-05-05T14:13:46.639Z,2.40
2019-05-05T14:16:15.316Z,2.03
2019-05-05T14:18:44.654Z,1.20
2019-05-05T14:21:14.431Z,1.07
2019-05-05T14:24:21.273Z,1.87
2019-05-05T14:26:50.616Z,1.30
2019-05-05T14:29:40.580Z,1.10
2019-05-05T14:32:13.546Z,1.40
2019-05-05T14:34:45.427Z,1.10
2019-05-05T14:37:34.014Z,1.30
2019-05-05T14:40:04.739Z,1.37
2019-05-05T14:42:34.302Z,1.47
2019-05-05T14:45:04.782Z,1.60
2019-05-05T14:47:34.250Z,1.27
2019-05-05T14:50:04.687Z,1.60
2019-05-05T14:52:34.195Z,1.37
2019-05-05T14:55:03.949Z,1.47
2019-05-05T14:57:33.698Z,1.53
2019-05-05T15:00:04.708Z,1.17
2019-05-05T15:02:34.790Z,1.30
2019-05-05T15:05:24.327Z,1.50
2019-05-05T15:08:24.712Z,1.63
2019-05-05T15:11:14.507Z,1.57
2019-05-05T15:13:43.888Z,1.57
2019-05-05T15:16:13.950Z,1.60
2019-05-05T15:18:43.442Z,1.97
2019-05-05T15:21:12.765Z,1.87
2019-05-05T15:23:43.618Z,1.53
2019-05-05T15:26:13.144Z,1.30
2019-05-05T15:28:44.058Z,1.50
2019-05-05T15:31:13.598Z,2.20
2019-05-05T15:33:44.115Z,2.27
2019-05-05T15:36:13.872Z,2.60
2019-05-05T15:38:43.764Z,2.60
2019-05-05T15:41:14.530Z,2.67
2019-05-05T15:43:44.157Z,2.87
2019-05-05T15:46:15.235Z,3.00
2019-05-05T15:48:45.288Z,3.20
2019-05-05T15:51:14.674Z,3.10
2019-05-05T15:53:44.017Z,3.27
2019-05-05T15:56:13.906Z,3.93
2019-05-05T15:58:43.642Z,3.47
2019-05-05T16:01:14.283Z,3.80
2019-05-05T16:03:43.699Z,2.80
2019-05-05T16:06:14.340Z,3.27
2019-05-05T16:08:44.489Z,3.07
2019-05-05T16:11:14.332Z,3.17
2019-05-05T16:13:44.091Z,3.03
2019-05-05T16:16:25.896Z,3.17
2019-05-05T16:19:24.354Z,3.50
2019-05-05T16:21:56.493Z,2.90
2019-05-05T16:24:28.209Z,3.33
2019-05-05T16:26:57.575Z,4.23
2019-05-05T16:29:26.991Z,4.00
2019-05-05T16:31:56.405Z,3.60
2019-05-05T16:34:25.891Z,3.70
2019-05-05T16:36:57.055Z,4.03
2019-05-05T16:39:27.525Z,3.33
2019-05-05T16:41:57.021Z,3.80
2019-05-05T16:44:27.901Z,3.70
2019-05-05T16:46:57.492Z,3.57
2019-05-05T16:49:26.809Z,3.23
2019-05-05T16:52:07.174Z,4.07
2019-05-05T16:54:42.047Z,3.77
2019-05-05T16:57:11.447Z,3.10
2019-05-05T16:59:40.854Z,3.00
2019-05-05T17:02:10.314Z,3.83
2019-05-05T17:04:39.761Z,3.83
2019-05-05T17:07:09.213Z,4.87
2019-05-05T17:09:38.720Z,7.63
2019-05-05T17:12:10.844Z,8.97
2019-05-05T17:14:58.842Z,5.33
2019-05-05T17:17:44.624Z,5.27
2019-05-05T17:20:17.458Z,4.17
2019-05-05T17:22:54.642Z,3.97
2019-05-05T17:25:24.638Z,4.73
2019-05-05T17:27:54.676Z,4.23
2019-05-05T17:30:26.992Z,4.00
2019-05-05T17:32:55.327Z,3.53
2019-05-05T17:35:24.688Z,4.13
2019-05-05T17:37:55.653Z,3.43
2019-05-05T17:40:50.347Z,9.70
2019-05-05T17:43:28.596Z,5.10
2019-05-05T17:46:10.213Z,5.43
2019-05-05T17:48:57.463Z,3.50
2019-05-05T17:51:36.232Z,4.10
2019-05-05T17:54:26.260Z,4.50
2019-05-05T17:56:55.617Z,4.13
2019-05-05T17:59:25.063Z,4.07
2019-05-05T18:01:54.406Z,5.57
2019-05-05T18:04:23.800Z,4.87
2019-05-05T18:07:05.028Z,4.23
2019-05-05T18:09:58.366Z,3.87
2019-05-05T18:12:45.579Z,8.53
2019-05-05T18:15:34.139Z,3.97
2019-05-05T18:18:04.363Z,3.97
2019-05-05T18:20:34.174Z,4.50
2019-05-05T18:23:03.668Z,3.67
2019-05-05T18:25:34.689Z,3.60
2019-05-05T18:28:15.742Z,3.30
2019-05-05T18:30:35.500Z,4.33
2019-05-05T18:33:04.897Z,4.00
2019-05-05T18:35:34.430Z,4.17
2019-05-05T18:38:04.154Z,3.93
2019-05-05T18:40:33.818Z,3.60
2019-05-05T18:43:06.974Z,3.63
2019-05-05T18:45:36.387Z,3.30
2019-05-05T18:48:05.786Z,3.63
2019-05-05T18:50:35.202Z,3.60
2019-05-05T18:53:04.791Z,3.57
2019-05-05T18:55:34.175Z,3.33
2019-05-05T18:58:05.213Z,3.63
2019-05-05T19:00:54.485Z,3.70
2019-05-05T19:03:28.070Z,3.47
2019-05-05T19:06:19.357Z,4.07
2019-05-05T19:08:54.541Z,3.80
2019-05-05T19:11:21.953Z,3.43
2019-05-05T19:13:54.087Z,3.83
2019-05-05T19:16:23.810Z,3.70
2019-05-05T19:18:53.924Z,3.53
2019-05-05T19:21:28.877Z,3.33
2019-05-05T19:23:58.211Z,4.23
2019-05-05T19:26:27.582Z,3.30
2019-05-05T19:28:57.035Z,3.87
2019-05-05T19:31:26.481Z,3.53
2019-05-05T19:33:56.008Z,3.40
2019-05-05T19:36:27.493Z,4.27
2019-05-05T19:38:56.521Z,3.93
2019-05-05T19:41:25.925Z,4.70
2019-05-05T19:43:55.360Z,4.60
2019-05-05T19:46:30.686Z,4.50
2019-05-05T19:49:16.336Z,4.00
2019-05-05T19:51:46.423Z,4.60
2019-05-05T19:54:15.734Z,5.93
2019-05-05T19:56:45.141Z,5.20
2019-05-05T19:59:14.593Z,4.13
2019-05-05T20:01:45.734Z,4.57
2019-05-05T20:04:15.048Z,4.47
2019-05-05T20:06:44.570Z,5.03
2019-05-05T20:09:14.407Z,4.07
2019-05-05T20:11:44.107Z,5.10
2019-05-05T20:14:15.199Z,5.03
2019-05-05T20:17:04.439Z,5.23
2019-05-05T20:19:38.500Z,5.70
2019-05-05T20:22:07.877Z,4.70
2019-05-05T20:24:37.360Z,4.27
2019-05-05T20:27:06.746Z,4.43
2019-05-05T20:29:37.477Z,4.43
2019-05-05T20:32:11.241Z,3.90
2019-05-05T20:34:46.359Z,4.23
2019-05-05T20:37:17.824Z,4.03
2019-05-05T20:39:47.236Z,4.30
2019-05-05T20:42:16.631Z,4.20
2019-05-05T20:44:46.026Z,4.30
2019-05-05T20:47:15.591Z,4.07
2019-05-05T20:49:44.999Z,4.60
2019-05-05T20:52:14.361Z,4.10
2019-05-05T20:54:44.084Z,5.20
2019-05-05T20:57:13.763Z,5.10
2019-05-05T20:59:44.499Z,4.90
2019-05-05T21:02:13.933Z,4.40
2019-05-05T21:04:44.557Z,4.20
2019-05-05T21:07:14.182Z,4.50
2019-05-05T21:09:43.618Z,4.77
2019-05-05T21:12:14.978Z,4.60
2019-05-05T21:14:44.680Z,4.80
2019-05-05T21:17:14.085Z,4.37
2019-05-05T21:19:43.472Z,5.20
2019-05-05T21:22:33.815Z,5.50
2019-05-05T21:25:04.857Z,5.07
2019-05-05T21:27:34.662Z,4.90
2019-05-05T21:30:05.327Z,5.43
2019-05-05T21:32:34.701Z,5.70
2019-05-05T21:35:06.150Z,5.23
2019-05-05T21:37:35.179Z,5.27
2019-05-05T21:40:04.806Z,4.67
2019-05-05T21:42:35.029Z,4.50
2019-05-05T21:45:04.918Z,4.90
2019-05-05T21:47:34.543Z,5.30
2019-05-05T21:50:05.154Z,4.90
2019-05-05T21:52:45.581Z,4.90
2019-05-05T21:55:24.441Z,4.90
2019-05-05T21:58:00.084Z,4.40
2019-05-05T22:00:47.261Z,5.03
2019-05-05T22:03:23.575Z,4.70
2019-05-05T22:05:53.893Z,4.57
2019-05-05T22:08:24.015Z,5.53
2019-05-05T22:10:54.381Z,4.10
2019-05-05T22:13:23.849Z,4.97
2019-05-05T22:15:54.554Z,5.40
2019-05-05T22:18:24.024Z,5.07
2019-05-05T22:20:59.991Z,4.73
2019-05-05T22:23:29.319Z,5.60
2019-05-05T22:25:58.719Z,5.73
2019-05-05T22:28:28.147Z,4.93
2019-05-05T22:30:57.689Z,5.53
2019-05-05T22:33:27.072Z,5.50
2019-05-05T22:35:56.400Z,5.10
2019-05-05T22:38:25.714Z,5.33
2019-05-05T22:40:55.004Z,5.73
2019-05-05T22:43:24.390Z,5.73
2019-05-05T22:45:54.110Z,5.53
2019-05-05T22:48:24.830Z,5.33
2019-05-05T22:50:54.531Z,5.60
2019-05-05T22:53:24.052Z,5.83
2019-05-05T22:55:53.464Z,5.83
2019-05-05T22:58:24.115Z,5.27
2019-05-05T23:00:54.852Z,4.83
2019-05-05T23:03:33.307Z,5.70
2019-05-05T23:06:06.928Z,5.47
2019-05-05T23:08:36.305Z,6.00
2019-05-05T23:11:05.742Z,5.90
2019-05-05T23:13:35.123Z,5.50
2019-05-05T23:16:26.607Z,6.27
2019-05-05T23:18:55.949Z,5.07
2019-05-05T23:21:40.785Z,5.50
2019-05-05T23:24:27.909Z,6.20
2019-05-05T23:26:57.335Z,5.73
2019-05-05T23:29:26.754Z,5.77
2019-05-05T23:31:57.574Z,6.00
2019-05-05T23:34:26.967Z,6.07
2019-05-05T23:36:56.358Z,6.50
2019-05-05T23:39:25.654Z,5.80
2019-05-05T23:41:55.015Z,5.57
2019-05-05T23:44:24.403Z,5.60
2019-05-05T23:46:53.991Z,6.30
2019-05-05T23:49:24.217Z,5.60
2019-05-05T23:51:54.159Z,5.67
2019-05-05T23:54:24.677Z,5.97
2019-05-05T23:56:54.253Z,6.40
2019-05-05T23:59:24.182Z,6.10
